CMR Airport (H A Clark Memorial Field) Information

FAA: CMR - ICAO: KCMR

CMR Airport Location

State Arizona
County Coconino
City Williams
CMR Airport is 3 miles north of Williams, AZ.
Latitude 35-18-19.8000N
Longitude 112-11-39.7000W
Elevation 6,690ft

KCMR Airport METARs

METAR KCMR 301815Z AUTO 04018G24KT 10SM CLR 15/M07 A3034 RMK AO2
Altimeter 30.34"
Temperature 15.0°C (59.0°F)
Wind 40° at 18KT with gusts to 24KT
Clouds Skies are clear.
Visibility 10.0mi
Time observed: 2021-11-30T18:15:00Z

CMR Airport Details

Status Operational
Activation November 1942
Ownership Public
Usage Public
Chart PHOENIX
ATC on-site No
Beacon schedule sunset-sunrise
Beacon color clear green

CMR Airport Contacts

Owner CITY OF WILLIAMS
Owner address 113 S FIRST ST, WILLIAMS, AZ 86046
Owner phone 928-635-4451
Manager PHIL LEROY
Manager address PO BOX 1078, WILLCOX, AZ 85644
Manager phone 520-253-0757

CMR Airport (H A Clark Memorial Field) Radio Frequencies

CMR (Airport) Radio Frequencies

UNICOM 122.8
Common traffic advisory frequency (CTAF) 122.8